sensor_id;sensor_type;location;lat;lon;timestamp;P1;durP1;ratioP1;P2;durP2;ratioP2
6145;SDS011;3104;50.348;7.620;2023-06-14T00:00:18;6.83;;;6.33;;
6145;SDS011;3104;50.348;7.620;2023-06-14T00:02:44;5.87;;;5.47;;
6145;SDS011;3104;50.348;7.620;2023-06-14T00:05:10;5.93;;;5.43;;
6145;SDS011;3104;50.348;7.620;2023-06-14T00:07:39;9.80;;;5.90;;
6145;SDS011;3104;50.348;7.620;2023-06-14T00:10:09;5.37;;;4.97;;
6145;SDS011;3104;50.348;7.620;2023-06-14T00:12:36;5.80;;;5.30;;
6145;SDS011;3104;50.348;7.620;2023-06-14T00:15:02;6.63;;;5.50;;
6145;SDS011;3104;50.348;7.620;2023-06-14T00:17:28;6.03;;;5.53;;
6145;SDS011;3104;50.348;7.620;2023-06-14T00:19:59;6.10;;;5.60;;
6145;SDS011;3104;50.348;7.620;2023-06-14T00:22:30;6.43;;;5.93;;
6145;SDS011;3104;50.348;7.620;2023-06-14T00:24:56;5.80;;;5.20;;
6145;SDS011;3104;50.348;7.620;2023-06-14T00:27:22;5.87;;;5.37;;
6145;SDS011;3104;50.348;7.620;2023-06-14T00:29:47;5.67;;;5.17;;
6145;SDS011;3104;50.348;7.620;2023-06-14T00:32:13;6.17;;;5.57;;
6145;SDS011;3104;50.348;7.620;2023-06-14T00:34:38;6.83;;;6.23;;
6145;SDS011;3104;50.348;7.620;2023-06-14T00:37:04;5.90;;;5.20;;
6145;SDS011;3104;50.348;7.620;2023-06-14T00:39:30;5.30;;;4.87;;
6145;SDS011;3104;50.348;7.620;2023-06-14T00:41:55;6.30;;;5.80;;
6145;SDS011;3104;50.348;7.620;2023-06-14T00:44:21;5.83;;;5.43;;
6145;SDS011;3104;50.348;7.620;2023-06-14T00:46:46;5.73;;;5.13;;
6145;SDS011;3104;50.348;7.620;2023-06-14T00:49:14;8.43;;;5.80;;
6145;SDS011;3104;50.348;7.620;2023-06-14T00:51:41;5.37;;;4.87;;
6145;SDS011;3104;50.348;7.620;2023-06-14T00:54:07;5.57;;;5.17;;
6145;SDS011;3104;50.348;7.620;2023-06-14T00:56:33;6.77;;;5.33;;
6145;SDS011;3104;50.348;7.620;2023-06-14T00:59:00;6.87;;;5.30;;
6145;SDS011;3104;50.348;7.620;2023-06-14T01:01:27;5.33;;;4.83;;
6145;SDS011;3104;50.348;7.620;2023-06-14T01:03:53;5.60;;;5.00;;
6145;SDS011;3104;50.348;7.620;2023-06-14T01:09:22;5.53;;;5.13;;
6145;SDS011;3104;50.348;7.620;2023-06-14T01:11:59;5.80;;;5.30;;
6145;SDS011;3104;50.348;7.620;2023-06-14T01:14:30;5.30;;;4.90;;
6145;SDS011;3104;50.348;7.620;2023-06-14T01:16:58;5.30;;;4.80;;
6145;SDS011;3104;50.348;7.620;2023-06-14T01:19:25;8.07;;;5.30;;
6145;SDS011;3104;50.348;7.620;2023-06-14T01:21:53;5.60;;;5.10;;
6145;SDS011;3104;50.348;7.620;2023-06-14T01:24:20;5.03;;;4.63;;
6145;SDS011;3104;50.348;7.620;2023-06-14T01:26:50;6.30;;;5.27;;
6145;SDS011;3104;50.348;7.620;2023-06-14T01:29:20;5.30;;;4.90;;
6145;SDS011;3104;50.348;7.620;2023-06-14T01:31:50;5.77;;;4.87;;
6145;SDS011;3104;50.348;7.620;2023-06-14T01:34:16;4.90;;;4.50;;
6145;SDS011;3104;50.348;7.620;2023-06-14T01:36:42;7.33;;;4.83;;
6145;SDS011;3104;50.348;7.620;2023-06-14T01:39:10;7.47;;;4.87;;
6145;SDS011;3104;50.348;7.620;2023-06-14T01:41:39;5.53;;;4.90;;
6145;SDS011;3104;50.348;7.620;2023-06-14T01:44:05;5.40;;;4.83;;
6145;SDS011;3104;50.348;7.620;2023-06-14T01:46:31;5.07;;;4.67;;
6145;SDS011;3104;50.348;7.620;2023-06-14T01:48:57;5.03;;;4.63;;
6145;SDS011;3104;50.348;7.620;2023-06-14T01:51:23;7.03;;;5.27;;
6145;SDS011;3104;50.348;7.620;2023-06-14T01:53:49;9.13;;;4.83;;
6145;SDS011;3104;50.348;7.620;2023-06-14T01:56:15;5.83;;;4.27;;
6145;SDS011;3104;50.348;7.620;2023-06-14T01:58:41;6.30;;;5.70;;
6145;SDS011;3104;50.348;7.620;2023-06-14T02:01:06;5.47;;;4.93;;
6145;SDS011;3104;50.348;7.620;2023-06-14T02:03:32;4.80;;;4.20;;
6145;SDS011;3104;50.348;7.620;2023-06-14T02:05:58;5.20;;;4.60;;
6145;SDS011;3104;50.348;7.620;2023-06-14T02:08:23;6.00;;;4.50;;
6145;SDS011;3104;50.348;7.620;2023-06-14T02:10:49;5.20;;;4.70;;
6145;SDS011;3104;50.348;7.620;2023-06-14T02:13:15;4.97;;;4.53;;
6145;SDS011;3104;50.348;7.620;2023-06-14T02:15:41;5.77;;;5.07;;
6145;SDS011;3104;50.348;7.620;2023-06-14T02:18:08;7.30;;;5.50;;
6145;SDS011;3104;50.348;7.620;2023-06-14T02:20:34;5.10;;;4.70;;
6145;SDS011;3104;50.348;7.620;2023-06-14T02:23:00;5.80;;;4.83;;
6145;SDS011;3104;50.348;7.620;2023-06-14T02:25:26;5.10;;;4.80;;
6145;SDS011;3104;50.348;7.620;2023-06-14T02:27:55;7.97;;;5.00;;
6145;SDS011;3104;50.348;7.620;2023-06-14T02:30:20;4.70;;;4.40;;
6145;SDS011;3104;50.348;7.620;2023-06-14T02:32:46;5.50;;;5.00;;
6145;SDS011;3104;50.348;7.620;2023-06-14T02:35:13;6.00;;;5.10;;
6145;SDS011;3104;50.348;7.620;2023-06-14T02:37:39;7.47;;;4.60;;
6145;SDS011;3104;50.348;7.620;2023-06-14T02:40:05;5.00;;;4.60;;
6145;SDS011;3104;50.348;7.620;2023-06-14T02:42:31;4.97;;;4.57;;
6145;SDS011;3104;50.348;7.620;2023-06-14T02:44:57;5.67;;;4.17;;
6145;SDS011;3104;50.348;7.620;2023-06-14T02:47:22;6.07;;;5.37;;
6145;SDS011;3104;50.348;7.620;2023-06-14T02:49:49;5.40;;;4.90;;
6145;SDS011;3104;50.348;7.620;2023-06-14T02:52:15;5.30;;;4.80;;
6145;SDS011;3104;50.348;7.620;2023-06-14T02:54:40;4.77;;;4.27;;
6145;SDS011;3104;50.348;7.620;2023-06-14T02:57:07;4.60;;;4.20;;
6145;SDS011;3104;50.348;7.620;2023-06-14T02:59:33;5.10;;;4.70;;
6145;SDS011;3104;50.348;7.620;2023-06-14T03:01:59;6.30;;;5.07;;
6145;SDS011;3104;50.348;7.620;2023-06-14T03:04:24;5.30;;;4.50;;
6145;SDS011;3104;50.348;7.620;2023-06-14T03:06:51;5.03;;;4.53;;
6145;SDS011;3104;50.348;7.620;2023-06-14T03:09:18;6.43;;;4.53;;
6145;SDS011;3104;50.348;7.620;2023-06-14T03:11:44;5.13;;;4.67;;
6145;SDS011;3104;50.348;7.620;2023-06-14T03:14:09;8.50;;;4.63;;
6145;SDS011;3104;50.348;7.620;2023-06-14T03:16:36;7.67;;;5.27;;
6145;SDS011;3104;50.348;7.620;2023-06-14T03:19:02;4.30;;;4.00;;
6145;SDS011;3104;50.348;7.620;2023-06-14T03:21:28;5.73;;;4.63;;
6145;SDS011;3104;50.348;7.620;2023-06-14T03:23:53;4.70;;;4.30;;
6145;SDS011;3104;50.348;7.620;2023-06-14T03:26:19;5.23;;;4.30;;
6145;SDS011;3104;50.348;7.620;2023-06-14T03:28:45;6.33;;;4.90;;
6145;SDS011;3104;50.348;7.620;2023-06-14T03:31:11;5.50;;;4.80;;
6145;SDS011;3104;50.348;7.620;2023-06-14T03:33:38;5.13;;;4.77;;
6145;SDS011;3104;50.348;7.620;2023-06-14T03:36:04;4.90;;;4.50;;
6145;SDS011;3104;50.348;7.620;2023-06-14T03:38:30;5.00;;;4.40;;
6145;SDS011;3104;50.348;7.620;2023-06-14T03:40:56;4.90;;;4.40;;
6145;SDS011;3104;50.348;7.620;2023-06-14T03:43:22;5.60;;;5.03;;
6145;SDS011;3104;50.348;7.620;2023-06-14T03:45:47;7.13;;;5.00;;
6145;SDS011;3104;50.348;7.620;2023-06-14T03:48:13;4.77;;;4.37;;
6145;SDS011;3104;50.348;7.620;2023-06-14T03:50:38;5.33;;;4.83;;
6145;SDS011;3104;50.348;7.620;2023-06-14T03:53:04;5.50;;;5.00;;
6145;SDS011;3104;50.348;7.620;2023-06-14T03:55:30;6.03;;;5.50;;
6145;SDS011;3104;50.348;7.620;2023-06-14T03:57:58;5.67;;;4.60;;
6145;SDS011;3104;50.348;7.620;2023-06-14T04:00:24;6.80;;;4.47;;
6145;SDS011;3104;50.348;7.620;2023-06-14T04:02:50;5.13;;;4.63;;
6145;SDS011;3104;50.348;7.620;2023-06-14T04:05:17;6.27;;;4.90;;
6145;SDS011;3104;50.348;7.620;2023-06-14T04:07:44;7.50;;;5.13;;
6145;SDS011;3104;50.348;7.620;2023-06-14T04:10:14;14.60;;;11.10;;
6145;SDS011;3104;50.348;7.620;2023-06-14T04:12:41;8.80;;;8.00;;
6145;SDS011;3104;50.348;7.620;2023-06-14T04:15:07;6.47;;;5.90;;
6145;SDS011;3104;50.348;7.620;2023-06-14T04:17:34;6.40;;;5.20;;
6145;SDS011;3104;50.348;7.620;2023-06-14T04:20:00;8.33;;;6.00;;
6145;SDS011;3104;50.348;7.620;2023-06-14T04:22:26;6.63;;;5.87;;
6145;SDS011;3104;50.348;7.620;2023-06-14T04:24:55;5.83;;;5.33;;
6145;SDS011;3104;50.348;7.620;2023-06-14T04:27:21;6.20;;;5.60;;
6145;SDS011;3104;50.348;7.620;2023-06-14T04:29:50;5.47;;;5.13;;
6145;SDS011;3104;50.348;7.620;2023-06-14T04:32:25;5.17;;;4.77;;
6145;SDS011;3104;50.348;7.620;2023-06-14T04:34:55;5.27;;;4.77;;
6145;SDS011;3104;50.348;7.620;2023-06-14T04:37:21;4.80;;;4.40;;
6145;SDS011;3104;50.348;7.620;2023-06-14T04:39:50;14.13;;;10.83;;
6145;SDS011;3104;50.348;7.620;2023-06-14T04:42:17;7.13;;;6.53;;
6145;SDS011;3104;50.348;7.620;2023-06-14T04:44:45;9.33;;;5.17;;
6145;SDS011;3104;50.348;7.620;2023-06-14T04:47:12;4.80;;;4.40;;
6145;SDS011;3104;50.348;7.620;2023-06-14T04:49:39;5.67;;;5.17;;
6145;SDS011;3104;50.348;7.620;2023-06-14T04:52:05;5.50;;;5.00;;
6145;SDS011;3104;50.348;7.620;2023-06-14T04:54:32;5.13;;;4.63;;
6145;SDS011;3104;50.348;7.620;2023-06-14T04:56:58;5.33;;;4.93;;
6145;SDS011;3104;50.348;7.620;2023-06-14T04:59:24;5.47;;;4.97;;
6145;SDS011;3104;50.348;7.620;2023-06-14T05:01:50;5.50;;;5.00;;
6145;SDS011;3104;50.348;7.620;2023-06-14T05:04:17;5.73;;;5.17;;
6145;SDS011;3104;50.348;7.620;2023-06-14T05:06:43;5.83;;;5.40;;
6145;SDS011;3104;50.348;7.620;2023-06-14T05:09:15;5.17;;;4.67;;
6145;SDS011;3104;50.348;7.620;2023-06-14T05:11:42;5.23;;;4.83;;
6145;SDS011;3104;50.348;7.620;2023-06-14T05:14:09;5.37;;;4.90;;
6145;SDS011;3104;50.348;7.620;2023-06-14T05:16:35;5.33;;;4.83;;
6145;SDS011;3104;50.348;7.620;2023-06-14T05:19:02;5.03;;;4.63;;
6145;SDS011;3104;50.348;7.620;2023-06-14T05:21:29;5.50;;;4.60;;
6145;SDS011;3104;50.348;7.620;2023-06-14T05:23:55;4.80;;;4.40;;
6145;SDS011;3104;50.348;7.620;2023-06-14T05:26:21;7.47;;;4.93;;
6145;SDS011;3104;50.348;7.620;2023-06-14T05:28:48;5.13;;;4.83;;
6145;SDS011;3104;50.348;7.620;2023-06-14T05:31:15;5.10;;;4.70;;
6145;SDS011;3104;50.348;7.620;2023-06-14T05:33:41;5.50;;;4.80;;
6145;SDS011;3104;50.348;7.620;2023-06-14T05:36:06;6.80;;;4.50;;
6145;SDS011;3104;50.348;7.620;2023-06-14T05:38:32;4.93;;;4.53;;
6145;SDS011;3104;50.348;7.620;2023-06-14T05:40:57;7.17;;;4.70;;
6145;SDS011;3104;50.348;7.620;2023-06-14T05:43:24;7.63;;;4.80;;
6145;SDS011;3104;50.348;7.620;2023-06-14T05:45:50;7.73;;;4.47;;
6145;SDS011;3104;50.348;7.620;2023-06-14T05:48:15;4.93;;;4.33;;
6145;SDS011;3104;50.348;7.620;2023-06-14T05:50:41;5.13;;;4.20;;
6145;SDS011;3104;50.348;7.620;2023-06-14T05:53:06;4.70;;;4.30;;
6145;SDS011;3104;50.348;7.620;2023-06-14T05:55:32;4.77;;;4.27;;
6145;SDS011;3104;50.348;7.620;2023-06-14T05:57:57;4.60;;;4.20;;
6145;SDS011;3104;50.348;7.620;2023-06-14T06:00:23;4.03;;;3.70;;
6145;SDS011;3104;50.348;7.620;2023-06-14T06:02:49;6.13;;;4.30;;
6145;SDS011;3104;50.348;7.620;2023-06-14T06:05:14;4.53;;;4.13;;
6145;SDS011;3104;50.348;7.620;2023-06-14T06:07:40;4.77;;;4.37;;
6145;SDS011;3104;50.348;7.620;2023-06-14T06:10:07;4.70;;;4.30;;
6145;SDS011;3104;50.348;7.620;2023-06-14T06:12:33;4.23;;;3.90;;
6145;SDS011;3104;50.348;7.620;2023-06-14T06:14:59;4.90;;;4.50;;
6145;SDS011;3104;50.348;7.620;2023-06-14T06:17:27;4.80;;;4.10;;
6145;SDS011;3104;50.348;7.620;2023-06-14T06:19:53;4.73;;;4.20;;
6145;SDS011;3104;50.348;7.620;2023-06-14T06:22:19;4.63;;;4.23;;
6145;SDS011;3104;50.348;7.620;2023-06-14T06:24:44;4.73;;;4.30;;
6145;SDS011;3104;50.348;7.620;2023-06-14T06:27:10;4.77;;;4.37;;
6145;SDS011;3104;50.348;7.620;2023-06-14T06:29:37;4.97;;;4.47;;
6145;SDS011;3104;50.348;7.620;2023-06-14T06:32:03;4.57;;;4.17;;
6145;SDS011;3104;50.348;7.620;2023-06-14T06:34:29;4.43;;;4.03;;
6145;SDS011;3104;50.348;7.620;2023-06-14T06:36:54;6.30;;;4.10;;
6145;SDS011;3104;50.348;7.620;2023-06-14T06:39:20;6.80;;;4.77;;
6145;SDS011;3104;50.348;7.620;2023-06-14T06:41:46;4.90;;;4.00;;
6145;SDS011;3104;50.348;7.620;2023-06-14T06:44:11;3.80;;;3.40;;
6145;SDS011;3104;50.348;7.620;2023-06-14T06:46:38;4.53;;;3.70;;
6145;SDS011;3104;50.348;7.620;2023-06-14T06:49:06;6.27;;;4.63;;
6145;SDS011;3104;50.348;7.620;2023-06-14T06:51:32;4.07;;;3.40;;
6145;SDS011;3104;50.348;7.620;2023-06-14T06:53:57;4.50;;;3.30;;
6145;SDS011;3104;50.348;7.620;2023-06-14T06:56:23;6.00;;;4.07;;
6145;SDS011;3104;50.348;7.620;2023-06-14T06:58:49;5.63;;;4.00;;
6145;SDS011;3104;50.348;7.620;2023-06-14T07:01:15;3.20;;;3.00;;
6145;SDS011;3104;50.348;7.620;2023-06-14T07:03:41;4.10;;;3.60;;
6145;SDS011;3104;50.348;7.620;2023-06-14T07:06:07;6.83;;;3.93;;
6145;SDS011;3104;50.348;7.620;2023-06-14T07:08:33;4.00;;;3.70;;
6145;SDS011;3104;50.348;7.620;2023-06-14T07:10:59;3.53;;;3.33;;
6145;SDS011;3104;50.348;7.620;2023-06-14T07:13:25;5.40;;;3.50;;
6145;SDS011;3104;50.348;7.620;2023-06-14T07:15:50;6.93;;;3.40;;
6145;SDS011;3104;50.348;7.620;2023-06-14T07:18:19;6.27;;;3.67;;
6145;SDS011;3104;50.348;7.620;2023-06-14T07:20:45;4.73;;;3.33;;
6145;SDS011;3104;50.348;7.620;2023-06-14T07:23:12;3.60;;;3.07;;
6145;SDS011;3104;50.348;7.620;2023-06-14T07:25:37;4.80;;;3.07;;
6145;SDS011;3104;50.348;7.620;2023-06-14T07:28:03;4.90;;;3.97;;
6145;SDS011;3104;50.348;7.620;2023-06-14T07:30:29;3.87;;;3.20;;
6145;SDS011;3104;50.348;7.620;2023-06-14T07:32:55;3.17;;;2.87;;
6145;SDS011;3104;50.348;7.620;2023-06-14T07:35:21;11.63;;;4.33;;
6145;SDS011;3104;50.348;7.620;2023-06-14T07:37:46;3.63;;;2.80;;
6145;SDS011;3104;50.348;7.620;2023-06-14T07:40:12;6.23;;;3.53;;
6145;SDS011;3104;50.348;7.620;2023-06-14T07:42:38;3.10;;;2.90;;
6145;SDS011;3104;50.348;7.620;2023-06-14T07:45:04;3.47;;;3.17;;
6145;SDS011;3104;50.348;7.620;2023-06-14T07:47:30;3.40;;;3.10;;
6145;SDS011;3104;50.348;7.620;2023-06-14T07:49:56;3.23;;;3.03;;
6145;SDS011;3104;50.348;7.620;2023-06-14T07:52:22;7.17;;;3.53;;
6145;SDS011;3104;50.348;7.620;2023-06-14T07:54:47;3.20;;;2.80;;
6145;SDS011;3104;50.348;7.620;2023-06-14T07:57:13;5.20;;;2.67;;
6145;SDS011;3104;50.348;7.620;2023-06-14T07:59:39;3.00;;;2.80;;
6145;SDS011;3104;50.348;7.620;2023-06-14T08:02:04;3.27;;;2.97;;
6145;SDS011;3104;50.348;7.620;2023-06-14T08:04:31;4.20;;;2.80;;
6145;SDS011;3104;50.348;7.620;2023-06-14T08:06:56;3.80;;;3.50;;
6145;SDS011;3104;50.348;7.620;2023-06-14T08:09:22;3.63;;;3.37;;
6145;SDS011;3104;50.348;7.620;2023-06-14T08:11:49;3.87;;;2.93;;
6145;SDS011;3104;50.348;7.620;2023-06-14T08:14:14;5.80;;;3.20;;
6145;SDS011;3104;50.348;7.620;2023-06-14T08:16:40;3.67;;;3.30;;
6145;SDS011;3104;50.348;7.620;2023-06-14T08:19:06;3.63;;;3.33;;
6145;SDS011;3104;50.348;7.620;2023-06-14T08:21:31;3.00;;;2.80;;
6145;SDS011;3104;50.348;7.620;2023-06-14T08:23:58;2.90;;;2.40;;
6145;SDS011;3104;50.348;7.620;2023-06-14T08:26:24;6.10;;;3.07;;
6145;SDS011;3104;50.348;7.620;2023-06-14T08:28:54;2.60;;;2.40;;
6145;SDS011;3104;50.348;7.620;2023-06-14T08:31:20;2.90;;;2.60;;
6145;SDS011;3104;50.348;7.620;2023-06-14T08:33:46;3.23;;;2.80;;
6145;SDS011;3104;50.348;7.620;2023-06-14T08:36:11;3.50;;;3.20;;
6145;SDS011;3104;50.348;7.620;2023-06-14T08:38:38;3.77;;;3.47;;
6145;SDS011;3104;50.348;7.620;2023-06-14T08:41:06;4.17;;;3.87;;
6145;SDS011;3104;50.348;7.620;2023-06-14T08:43:36;5.30;;;3.03;;
6145;SDS011;3104;50.348;7.620;2023-06-14T08:46:03;4.37;;;3.20;;
6145;SDS011;3104;50.348;7.620;2023-06-14T08:48:29;3.07;;;2.77;;
6145;SDS011;3104;50.348;7.620;2023-06-14T08:51:01;4.00;;;2.97;;
6145;SDS011;3104;50.348;7.620;2023-06-14T08:53:32;3.10;;;2.80;;
6145;SDS011;3104;50.348;7.620;2023-06-14T08:56:02;3.90;;;3.00;;
6145;SDS011;3104;50.348;7.620;2023-06-14T08:58:29;3.40;;;3.20;;
6145;SDS011;3104;50.348;7.620;2023-06-14T09:00:59;3.43;;;3.10;;
6145;SDS011;3104;50.348;7.620;2023-06-14T09:03:26;3.63;;;3.33;;
6145;SDS011;3104;50.348;7.620;2023-06-14T09:05:55;5.13;;;3.10;;
6145;SDS011;3104;50.348;7.620;2023-06-14T09:08:27;3.23;;;3.03;;
6145;SDS011;3104;50.348;7.620;2023-06-14T09:10:56;5.70;;;3.00;;
6145;SDS011;3104;50.348;7.620;2023-06-14T09:13:22;3.60;;;2.90;;
6145;SDS011;3104;50.348;7.620;2023-06-14T09:15:48;4.50;;;3.00;;
6145;SDS011;3104;50.348;7.620;2023-06-14T09:18:14;3.23;;;2.93;;
6145;SDS011;3104;50.348;7.620;2023-06-14T09:20:40;3.30;;;3.00;;
6145;SDS011;3104;50.348;7.620;2023-06-14T09:23:06;3.77;;;3.47;;
6145;SDS011;3104;50.348;7.620;2023-06-14T09:25:32;2.90;;;2.70;;
6145;SDS011;3104;50.348;7.620;2023-06-14T09:28:07;2.80;;;2.60;;
6145;SDS011;3104;50.348;7.620;2023-06-14T09:30:33;3.30;;;2.70;;
6145;SDS011;3104;50.348;7.620;2023-06-14T09:32:59;4.07;;;2.30;;
6145;SDS011;3104;50.348;7.620;2023-06-14T09:35:24;3.00;;;2.80;;
6145;SDS011;3104;50.348;7.620;2023-06-14T09:37:50;3.20;;;2.90;;
6145;SDS011;3104;50.348;7.620;2023-06-14T09:40:19;2.57;;;2.37;;
6145;SDS011;3104;50.348;7.620;2023-06-14T09:42:45;3.00;;;2.80;;
6145;SDS011;3104;50.348;7.620;2023-06-14T09:45:11;3.50;;;2.70;;
6145;SDS011;3104;50.348;7.620;2023-06-14T09:47:38;3.93;;;3.63;;
6145;SDS011;3104;50.348;7.620;2023-06-14T09:50:04;3.40;;;3.10;;
6145;SDS011;3104;50.348;7.620;2023-06-14T09:52:31;4.57;;;2.90;;
6145;SDS011;3104;50.348;7.620;2023-06-14T09:54:56;3.60;;;2.70;;
6145;SDS011;3104;50.348;7.620;2023-06-14T09:57:24;3.10;;;2.80;;
6145;SDS011;3104;50.348;7.620;2023-06-14T09:59:56;2.60;;;2.40;;
6145;SDS011;3104;50.348;7.620;2023-06-14T10:02:26;3.43;;;3.23;;
6145;SDS011;3104;50.348;7.620;2023-06-14T10:04:58;2.93;;;2.80;;
6145;SDS011;3104;50.348;7.620;2023-06-14T10:07:33;2.60;;;2.40;;
6145;SDS011;3104;50.348;7.620;2023-06-14T10:10:03;3.10;;;2.90;;
6145;SDS011;3104;50.348;7.620;2023-06-14T10:12:30;3.00;;;2.80;;
6145;SDS011;3104;50.348;7.620;2023-06-14T10:14:56;6.17;;;2.90;;
6145;SDS011;3104;50.348;7.620;2023-06-14T10:20:02;2.60;;;2.40;;
6145;SDS011;3104;50.348;7.620;2023-06-14T10:22:56;5.13;;;2.50;;
6145;SDS011;3104;50.348;7.620;2023-06-14T10:25:29;2.50;;;2.30;;
6145;SDS011;3104;50.348;7.620;2023-06-14T10:28:29;2.90;;;2.70;;
6145;SDS011;3104;50.348;7.620;2023-06-14T10:33:55;3.60;;;2.83;;
6145;SDS011;3104;50.348;7.620;2023-06-14T10:39:06;4.50;;;2.43;;
6145;SDS011;3104;50.348;7.620;2023-06-14T10:41:37;6.20;;;2.80;;
6145;SDS011;3104;50.348;7.620;2023-06-14T10:46:38;2.50;;;2.40;;
6145;SDS011;3104;50.348;7.620;2023-06-14T10:49:18;3.83;;;2.43;;
6145;SDS011;3104;50.348;7.620;2023-06-14T10:51:45;2.80;;;2.60;;
6145;SDS011;3104;50.348;7.620;2023-06-14T10:54:14;2.33;;;2.23;;
6145;SDS011;3104;50.348;7.620;2023-06-14T10:56:50;4.70;;;2.20;;
6145;SDS011;3104;50.348;7.620;2023-06-14T10:59:18;2.57;;;2.37;;
6145;SDS011;3104;50.348;7.620;2023-06-14T11:04:13;1.90;;;1.80;;
6145;SDS011;3104;50.348;7.620;2023-06-14T11:06:44;3.33;;;3.07;;
6145;SDS011;3104;50.348;7.620;2023-06-14T11:09:20;2.40;;;2.20;;
6145;SDS011;3104;50.348;7.620;2023-06-14T11:12:06;2.43;;;2.20;;
6145;SDS011;3104;50.348;7.620;2023-06-14T11:14:35;2.90;;;2.00;;
6145;SDS011;3104;50.348;7.620;2023-06-14T11:17:01;4.33;;;2.30;;
6145;SDS011;3104;50.348;7.620;2023-06-14T11:19:26;2.63;;;2.30;;
6145;SDS011;3104;50.348;7.620;2023-06-14T11:21:54;2.37;;;2.17;;
6145;SDS011;3104;50.348;7.620;2023-06-14T11:24:20;2.10;;;1.90;;
6145;SDS011;3104;50.348;7.620;2023-06-14T11:26:46;2.97;;;2.20;;
6145;SDS011;3104;50.348;7.620;2023-06-14T11:29:12;2.03;;;1.90;;
6145;SDS011;3104;50.348;7.620;2023-06-14T11:31:42;2.53;;;2.30;;
6145;SDS011;3104;50.348;7.620;2023-06-14T11:34:09;3.17;;;2.50;;
6145;SDS011;3104;50.348;7.620;2023-06-14T11:36:35;2.40;;;2.30;;
6145;SDS011;3104;50.348;7.620;2023-06-14T11:39:04;2.33;;;2.23;;
6145;SDS011;3104;50.348;7.620;2023-06-14T11:41:42;2.73;;;2.47;;
6145;SDS011;3104;50.348;7.620;2023-06-14T11:44:09;3.20;;;3.00;;
6145;SDS011;3104;50.348;7.620;2023-06-14T11:46:35;3.00;;;2.50;;
6145;SDS011;3104;50.348;7.620;2023-06-14T11:49:01;2.50;;;2.40;;
6145;SDS011;3104;50.348;7.620;2023-06-14T11:51:32;3.20;;;3.00;;
6145;SDS011;3104;50.348;7.620;2023-06-14T11:53:59;5.33;;;2.43;;
6145;SDS011;3104;50.348;7.620;2023-06-14T11:56:26;3.20;;;3.00;;
6145;SDS011;3104;50.348;7.620;2023-06-14T11:58:52;2.93;;;2.73;;
6145;SDS011;3104;50.348;7.620;2023-06-14T12:01:17;2.77;;;2.67;;
6145;SDS011;3104;50.348;7.620;2023-06-14T12:03:47;3.13;;;2.83;;
6145;SDS011;3104;50.348;7.620;2023-06-14T12:06:16;3.07;;;2.87;;
6145;SDS011;3104;50.348;7.620;2023-06-14T12:08:50;3.00;;;2.80;;
6145;SDS011;3104;50.348;7.620;2023-06-14T12:11:17;3.67;;;2.63;;
6145;SDS011;3104;50.348;7.620;2023-06-14T12:13:43;3.60;;;2.80;;
6145;SDS011;3104;50.348;7.620;2023-06-14T12:16:11;3.77;;;3.23;;
6145;SDS011;3104;50.348;7.620;2023-06-14T12:18:38;3.70;;;2.90;;
6145;SDS011;3104;50.348;7.620;2023-06-14T12:21:06;3.47;;;3.17;;
6145;SDS011;3104;50.348;7.620;2023-06-14T12:24:05;3.33;;;3.13;;
6145;SDS011;3104;50.348;7.620;2023-06-14T12:26:24;4.33;;;2.93;;
6145;SDS011;3104;50.348;7.620;2023-06-14T12:28:51;3.43;;;3.13;;
6145;SDS011;3104;50.348;7.620;2023-06-14T12:31:17;4.00;;;3.10;;
6145;SDS011;3104;50.348;7.620;2023-06-14T12:33:43;2.90;;;2.70;;
6145;SDS011;3104;50.348;7.620;2023-06-14T12:36:10;3.43;;;3.13;;
6145;SDS011;3104;50.348;7.620;2023-06-14T12:38:36;2.80;;;2.60;;
6145;SDS011;3104;50.348;7.620;2023-06-14T12:41:02;5.03;;;3.17;;
6145;SDS011;3104;50.348;7.620;2023-06-14T12:43:29;3.63;;;2.97;;
6145;SDS011;3104;50.348;7.620;2023-06-14T12:45:54;3.80;;;3.50;;
6145;SDS011;3104;50.348;7.620;2023-06-14T12:48:20;3.10;;;2.80;;
6145;SDS011;3104;50.348;7.620;2023-06-14T12:50:46;3.57;;;3.27;;
6145;SDS011;3104;50.348;7.620;2023-06-14T12:53:12;3.93;;;3.30;;
6145;SDS011;3104;50.348;7.620;2023-06-14T12:55:38;3.30;;;3.00;;
6145;SDS011;3104;50.348;7.620;2023-06-14T12:58:03;3.90;;;3.37;;
6145;SDS011;3104;50.348;7.620;2023-06-14T13:00:32;3.00;;;2.80;;
6145;SDS011;3104;50.348;7.620;2023-06-14T13:02:59;2.63;;;2.53;;
6145;SDS011;3104;50.348;7.620;2023-06-14T13:05:24;3.60;;;3.30;;
6145;SDS011;3104;50.348;7.620;2023-06-14T13:07:50;2.60;;;2.40;;
6145;SDS011;3104;50.348;7.620;2023-06-14T13:10:16;3.20;;;3.00;;
6145;SDS011;3104;50.348;7.620;2023-06-14T13:12:42;2.63;;;2.53;;
6145;SDS011;3104;50.348;7.620;2023-06-14T13:15:08;3.63;;;2.40;;
6145;SDS011;3104;50.348;7.620;2023-06-14T13:17:34;3.10;;;2.90;;
6145;SDS011;3104;50.348;7.620;2023-06-14T13:20:04;2.67;;;2.57;;
6145;SDS011;3104;50.348;7.620;2023-06-14T13:22:32;4.33;;;3.13;;
6145;SDS011;3104;50.348;7.620;2023-06-14T13:24:57;3.00;;;2.80;;
6145;SDS011;3104;50.348;7.620;2023-06-14T13:27:23;3.30;;;2.73;;
6145;SDS011;3104;50.348;7.620;2023-06-14T13:29:49;2.70;;;2.50;;
6145;SDS011;3104;50.348;7.620;2023-06-14T13:32:15;3.13;;;2.93;;
6145;SDS011;3104;50.348;7.620;2023-06-14T13:34:41;5.63;;;2.83;;
6145;SDS011;3104;50.348;7.620;2023-06-14T13:37:06;5.90;;;2.83;;
6145;SDS011;3104;50.348;7.620;2023-06-14T13:39:32;3.00;;;2.80;;
6145;SDS011;3104;50.348;7.620;2023-06-14T13:41:57;4.03;;;2.93;;
6145;SDS011;3104;50.348;7.620;2023-06-14T13:44:23;2.50;;;2.40;;
6145;SDS011;3104;50.348;7.620;2023-06-14T13:46:49;2.87;;;2.70;;
6145;SDS011;3104;50.348;7.620;2023-06-14T13:49:15;2.73;;;2.53;;
6145;SDS011;3104;50.348;7.620;2023-06-14T13:51:41;3.30;;;3.03;;
6145;SDS011;3104;50.348;7.620;2023-06-14T13:54:07;2.93;;;2.63;;
6145;SDS011;3104;50.348;7.620;2023-06-14T13:56:32;3.03;;;2.60;;
6145;SDS011;3104;50.348;7.620;2023-06-14T13:58:58;2.90;;;2.60;;
6145;SDS011;3104;50.348;7.620;2023-06-14T14:01:25;2.67;;;2.57;;
6145;SDS011;3104;50.348;7.620;2023-06-14T14:03:51;3.43;;;3.23;;
6145;SDS011;3104;50.348;7.620;2023-06-14T14:06:17;3.27;;;2.97;;
6145;SDS011;3104;50.348;7.620;2023-06-14T14:08:42;3.30;;;3.10;;
6145;SDS011;3104;50.348;7.620;2023-06-14T14:11:09;3.27;;;3.07;;
6145;SDS011;3104;50.348;7.620;2023-06-14T14:13:35;3.33;;;3.03;;
6145;SDS011;3104;50.348;7.620;2023-06-14T14:16:01;2.60;;;2.50;;
6145;SDS011;3104;50.348;7.620;2023-06-14T14:18:28;3.07;;;2.87;;
6145;SDS011;3104;50.348;7.620;2023-06-14T14:20:54;3.30;;;3.00;;
6145;SDS011;3104;50.348;7.620;2023-06-14T14:23:20;2.87;;;2.67;;
6145;SDS011;3104;50.348;7.620;2023-06-14T14:25:46;3.20;;;3.00;;
6145;SDS011;3104;50.348;7.620;2023-06-14T14:28:12;3.07;;;2.87;;
6145;SDS011;3104;50.348;7.620;2023-06-14T14:30:40;4.80;;;3.53;;
6145;SDS011;3104;50.348;7.620;2023-06-14T14:33:06;2.83;;;2.60;;
6145;SDS011;3104;50.348;7.620;2023-06-14T14:35:32;3.43;;;3.17;;
6145;SDS011;3104;50.348;7.620;2023-06-14T14:37:58;3.00;;;2.80;;
6145;SDS011;3104;50.348;7.620;2023-06-14T14:40:24;4.00;;;2.90;;
6145;SDS011;3104;50.348;7.620;2023-06-14T14:42:49;3.07;;;2.87;;
6145;SDS011;3104;50.348;7.620;2023-06-14T14:45:15;3.93;;;3.20;;
6145;SDS011;3104;50.348;7.620;2023-06-14T14:47:41;3.57;;;3.37;;
6145;SDS011;3104;50.348;7.620;2023-06-14T14:50:06;2.80;;;2.60;;
6145;SDS011;3104;50.348;7.620;2023-06-14T14:52:35;3.17;;;2.97;;
6145;SDS011;3104;50.348;7.620;2023-06-14T14:55:01;3.13;;;2.80;;
6145;SDS011;3104;50.348;7.620;2023-06-14T14:57:27;3.33;;;3.13;;
6145;SDS011;3104;50.348;7.620;2023-06-14T14:59:52;2.80;;;2.60;;
6145;SDS011;3104;50.348;7.620;2023-06-14T15:02:18;3.90;;;3.70;;
6145;SDS011;3104;50.348;7.620;2023-06-14T15:04:44;3.57;;;3.37;;
6145;SDS011;3104;50.348;7.620;2023-06-14T15:07:10;3.20;;;3.00;;
6145;SDS011;3104;50.348;7.620;2023-06-14T15:09:36;4.67;;;2.90;;
6145;SDS011;3104;50.348;7.620;2023-06-14T15:12:03;4.13;;;3.00;;
6145;SDS011;3104;50.348;7.620;2023-06-14T15:14:29;3.27;;;2.87;;
6145;SDS011;3104;50.348;7.620;2023-06-14T15:16:55;2.83;;;2.63;;
6145;SDS011;3104;50.348;7.620;2023-06-14T15:19:20;3.30;;;3.10;;
6145;SDS011;3104;50.348;7.620;2023-06-14T15:21:46;3.40;;;3.10;;
6145;SDS011;3104;50.348;7.620;2023-06-14T15:24:11;2.70;;;2.60;;
6145;SDS011;3104;50.348;7.620;2023-06-14T15:26:37;2.93;;;2.73;;
6145;SDS011;3104;50.348;7.620;2023-06-14T15:29:02;3.10;;;2.90;;